createdAt,value
2022-10-17T09:40:29.004Z,103196.91
2022-10-17T09:43:00.465Z,103185.94
2022-10-17T09:45:34.085Z,103191.22
2022-10-17T09:48:11.873Z,103187.72
2022-10-17T09:50:44.707Z,103180.50
2022-10-17T09:53:19.066Z,103174.44
2022-10-17T09:55:56.663Z,103174.00
2022-10-17T09:58:42.483Z,103172.56
2022-10-17T10:01:24.391Z,103173.44
2022-10-17T10:04:12.428Z,103171.28
2022-10-17T10:07:10.177Z,103165.84
2022-10-17T10:09:41.585Z,103165.28
2022-10-17T10:12:26.857Z,103163.50
2022-10-17T10:14:58.414Z,103164.25
2022-10-17T10:17:46.561Z,103159.44
2022-10-17T10:20:32.888Z,103161.28
2022-10-17T10:23:14.823Z,103158.63
2022-10-17T10:25:54.749Z,103151.50
2022-10-17T10:28:31.031Z,103143.19
2022-10-17T10:31:09.289Z,103142.03
2022-10-17T10:33:48.086Z,103133.78
2022-10-17T10:36:23.389Z,103133.75
2022-10-17T10:38:56.271Z,103135.88
2022-10-17T10:41:28.130Z,103130.03
2022-10-17T10:44:03.620Z,103130.63
2022-10-17T10:46:33.256Z,103114.00
2022-10-17T10:49:03.878Z,103118.91
2022-10-17T10:51:37.987Z,103113.44
2022-10-17T10:54:13.667Z,103116.25
2022-10-17T10:56:48.798Z,103108.59
2022-10-17T10:59:30.742Z,103111.97
2022-10-17T11:02:13.838Z,103114.69
2022-10-17T11:04:57.075Z,103113.06
2022-10-17T11:07:32.781Z,103119.41
2022-10-17T11:10:14.343Z,103118.75
2022-10-17T11:12:52.879Z,103131.50
2022-10-17T11:15:31.767Z,103129.69
2022-10-17T11:18:10.095Z,103127.78
2022-10-17T11:20:54.066Z,103127.97
2022-10-17T11:23:30.650Z,103125.25
2022-10-17T11:26:09.140Z,103114.56
2022-10-17T11:28:44.586Z,103109.81
2022-10-17T11:31:22.423Z,103116.31
2022-10-17T11:34:06.230Z,103115.75
2022-10-17T11:36:47.776Z,103103.34
2022-10-17T11:39:48.902Z,103111.13
2022-10-17T11:42:25.055Z,103102.09
2022-10-17T11:45:05.951Z,103108.34
2022-10-17T11:48:05.396Z,103098.84
2022-10-17T11:53:50.863Z,103108.88
2022-10-17T11:56:40.409Z,103101.38
2022-10-17T11:59:43.534Z,103094.13
2022-10-17T12:02:32.862Z,103102.81
2022-10-17T12:05:22.026Z,103101.72
2022-10-17T12:08:02.388Z,103094.78
2022-10-17T12:11:01.003Z,103090.28
2022-10-17T12:13:52.974Z,103095.13
2022-10-17T12:16:50.778Z,103094.69
2022-10-17T12:19:34.883Z,103090.28
2022-10-17T12:22:26.901Z,103095.16
2022-10-17T12:24:59.506Z,103091.13
2022-10-17T12:27:43.836Z,103090.97
2022-10-17T12:30:22.498Z,103090.72
2022-10-17T12:33:07.473Z,103099.00
2022-10-17T12:35:43.263Z,103091.47
2022-10-17T12:38:32.364Z,103102.63
2022-10-17T12:41:08.506Z,103088.19
2022-10-17T12:43:55.783Z,103102.72
2022-10-17T12:46:56.828Z,103100.38
2022-10-17T12:49:54.424Z,103102.00
2022-10-17T12:55:27.910Z,103103.31
2022-10-17T12:58:00.647Z,103109.94
2022-10-17T13:18:41.220Z,103096.47
2022-10-17T13:21:19.468Z,103090.53
2022-10-17T13:23:51.524Z,103088.72
2022-10-17T13:26:23.271Z,103094.25
2022-10-17T13:29:06.979Z,103107.44
2022-10-17T13:31:44.257Z,103103.25
2022-10-17T13:34:21.214Z,103100.19
2022-10-17T13:36:55.425Z,103104.44
2022-10-17T13:39:54.329Z,103108.56
2022-10-17T13:42:29.471Z,103109.66
2022-10-17T13:45:00.842Z,103104.72
2022-10-17T13:47:34.418Z,103114.88
2022-10-17T13:50:39.644Z,103118.59
2022-10-17T13:53:22.558Z,103125.81
2022-10-17T13:56:16.178Z,103120.03
2022-10-17T13:58:52.348Z,103119.66
2022-10-17T14:01:26.050Z,103133.19
2022-10-17T14:04:08.460Z,103127.56
2022-10-17T14:06:47.592Z,103130.97
2022-10-17T14:09:27.148Z,103128.63
2022-10-17T14:12:03.580Z,103136.06
2022-10-17T14:14:51.652Z,103135.44
2022-10-17T14:17:27.439Z,103130.00
2022-10-17T14:20:26.650Z,103129.91
2022-10-17T14:23:22.378Z,103131.53
2022-10-17T14:25:48.905Z,103130.88
2022-10-17T14:28:18.774Z,103135.56
2022-10-17T14:30:56.639Z,103135.53
2022-10-17T14:33:31.067Z,103141.66
2022-10-17T14:36:10.072Z,103139.31
2022-10-17T14:38:55.936Z,103130.88
2022-10-17T14:41:42.277Z,103134.63
2022-10-17T14:44:21.903Z,103136.84
2022-10-17T14:47:00.247Z,103132.31
2022-10-17T14:49:38.037Z,103130.41
2022-10-17T14:52:25.793Z,103137.84
2022-10-17T14:54:58.285Z,103141.44
2022-10-17T14:57:31.367Z,103128.72
2022-10-17T15:00:05.156Z,103140.19
2022-10-17T15:02:35.249Z,103143.81
2022-10-17T15:05:06.500Z,103147.53
2022-10-17T15:07:39.573Z,103145.59
2022-10-17T15:10:26.644Z,103151.38
2022-10-17T15:13:26.172Z,103156.84
2022-10-17T15:15:54.273Z,103150.47
2022-10-17T15:18:33.136Z,103153.66
2022-10-17T15:21:11.263Z,103153.88
2022-10-17T15:23:47.642Z,103153.41
2022-10-17T15:26:19.586Z,103150.34
2022-10-17T15:28:53.547Z,103149.97
2022-10-17T15:31:31.547Z,103151.66
2022-10-17T15:34:01.422Z,103154.41
2022-10-17T15:36:34.862Z,103150.28
2022-10-17T15:39:07.126Z,103147.31
2022-10-17T15:41:39.295Z,103149.97
2022-10-17T15:44:09.358Z,103154.81
2022-10-17T15:46:44.571Z,103162.09
2022-10-17T15:49:20.215Z,103172.28
2022-10-17T15:51:55.086Z,103176.19
2022-10-17T15:54:25.297Z,103178.47
2022-10-17T15:56:58.315Z,103190.81
2022-10-17T15:59:35.165Z,103194.59
2022-10-17T16:02:05.679Z,103201.16
2022-10-17T16:04:38.556Z,103202.69
2022-10-17T16:07:10.719Z,103205.84
2022-10-17T16:09:44.407Z,103211.97
2022-10-17T16:12:24.901Z,103206.34
2022-10-17T16:14:56.438Z,103195.06
2022-10-17T16:17:33.499Z,103196.56
2022-10-17T16:20:03.794Z,103198.03
2022-10-17T16:22:37.630Z,103202.44
2022-10-17T16:25:10.982Z,103191.41
2022-10-17T16:27:43.213Z,103196.41
2022-10-17T16:30:14.911Z,103199.78
2022-10-17T16:32:45.440Z,103209.84
2022-10-17T16:35:20.290Z,103195.38
2022-10-17T16:37:50.575Z,103194.50
2022-10-17T16:40:25.246Z,103194.38
2022-10-17T16:42:56.474Z,103181.06
2022-10-17T16:45:30.032Z,103192.84
2022-10-17T16:48:00.085Z,103191.34
2022-10-17T16:50:31.599Z,103174.78
2022-10-17T16:53:04.388Z,103177.91
2022-10-17T16:55:40.612Z,103181.53
2022-10-17T16:58:13.766Z,103186.84
2022-10-17T17:00:47.195Z,103187.44
2022-10-17T17:03:18.879Z,103181.16
2022-10-17T17:05:52.691Z,103186.09
2022-10-17T17:08:22.415Z,103182.41
2022-10-17T17:10:56.684Z,103192.81
2022-10-17T17:13:32.150Z,103187.78
2022-10-17T17:16:09.713Z,103191.44
2022-10-17T17:18:42.720Z,103187.88
2022-10-17T17:21:14.386Z,103183.94
2022-10-17T17:23:45.450Z,103184.06
2022-10-17T17:26:17.917Z,103176.03
2022-10-17T17:28:59.330Z,103181.44
2022-10-17T17:31:35.778Z,103178.03
2022-10-17T17:34:13.155Z,103189.91
2022-10-17T17:36:49.683Z,103194.03
2022-10-17T17:39:21.377Z,103199.00
2022-10-17T17:41:53.302Z,103197.50
2022-10-17T17:44:24.815Z,103203.66
2022-10-17T17:46:54.994Z,103200.59
2022-10-17T17:49:26.840Z,103201.72
2022-10-17T17:51:57.165Z,103206.59
2022-10-17T17:54:27.218Z,103205.81
2022-10-17T17:56:57.433Z,103202.53
2022-10-17T17:59:31.040Z,103208.16
2022-10-17T18:02:03.219Z,103205.22
2022-10-17T18:04:34.472Z,103208.28
2022-10-17T18:07:04.583Z,103200.72
2022-10-17T18:09:34.450Z,103207.47
2022-10-17T18:12:04.560Z,103204.28
2022-10-17T18:14:36.486Z,103202.16
2022-10-17T18:17:06.760Z,103203.75
2022-10-17T18:19:36.589Z,103213.97
2022-10-17T18:22:06.671Z,103214.88
2022-10-17T18:24:36.466Z,103212.31
2022-10-17T18:27:06.673Z,103217.94
2022-10-17T18:29:37.539Z,103222.03
2022-10-17T18:32:07.727Z,103225.22
2022-10-17T18:34:36.993Z,103224.69
2022-10-17T18:37:07.547Z,103229.22
2022-10-17T18:39:37.732Z,103233.06
2022-10-17T18:42:11.677Z,103235.59
2022-10-17T18:44:43.926Z,103230.97
2022-10-17T18:47:14.444Z,103241.56
2022-10-17T18:49:44.559Z,103236.28
2022-10-17T18:52:14.957Z,103244.66
2022-10-17T18:54:45.146Z,103245.00
2022-10-17T18:57:15.238Z,103244.22
2022-10-17T18:59:46.955Z,103247.63
2022-10-17T19:02:17.277Z,103250.03
2022-10-17T19:09:44.783Z,103247.50
2022-10-17T19:12:45.614Z,103254.56
2022-10-17T19:15:16.965Z,103251.59
2022-10-17T19:17:47.028Z,103248.75
2022-10-17T19:20:17.447Z,103251.81
2022-10-17T19:22:49.039Z,103248.94
2022-10-17T19:25:20.381Z,103252.78
2022-10-17T19:27:50.422Z,103266.34
2022-10-17T19:30:21.982Z,103257.44
2022-10-17T19:32:52.968Z,103257.94
2022-10-17T19:35:22.999Z,103255.38
2022-10-17T19:37:53.501Z,103268.78
2022-10-17T19:43:56.759Z,103267.28
2022-10-17T19:46:28.441Z,103270.63
2022-10-17T19:48:58.588Z,103268.00
2022-10-17T19:51:28.927Z,103268.78
2022-10-17T19:54:01.943Z,103267.56
2022-10-17T19:56:37.468Z,103266.75
2022-10-17T19:59:08.408Z,103271.75
2022-10-17T20:01:41.081Z,103268.81
2022-10-17T20:04:12.686Z,103271.88
2022-10-17T20:06:43.510Z,103267.56
2022-10-17T20:09:16.882Z,103266.69
2022-10-17T20:11:47.262Z,103274.13
2022-10-17T20:14:17.208Z,103274.91
2022-10-17T20:16:50.597Z,103267.28
2022-10-17T20:19:20.923Z,103274.44
2022-10-17T20:21:50.561Z,103275.50
2022-10-17T20:24:20.033Z,103269.91
2022-10-17T20:26:49.713Z,103277.69
2022-10-17T20:29:20.046Z,103278.31
2022-10-17T20:31:51.883Z,103270.16
2022-10-17T20:34:23.745Z,103269.06
2022-10-17T20:36:56.053Z,103277.19
2022-10-17T20:39:26.479Z,103270.44
2022-10-17T20:41:56.526Z,103267.78
2022-10-17T20:44:26.691Z,103261.56
2022-10-17T20:47:02.303Z,103257.78
2022-10-17T20:49:33.976Z,103261.09
2022-10-17T20:52:04.548Z,103254.63
2022-10-17T20:54:35.786Z,103247.28
2022-10-17T20:57:05.895Z,103247.19
2022-10-17T20:59:36.442Z,103245.44
2022-10-17T21:02:08.279Z,103242.16
2022-10-17T21:04:46.453Z,103254.84
2022-10-17T21:07:17.622Z,103256.00
2022-10-17T21:09:47.821Z,103250.81
2022-10-17T21:12:25.964Z,103250.47
2022-10-17T21:15:07.808Z,103255.22
2022-10-17T21:17:39.000Z,103255.97
2022-10-17T21:20:10.001Z,103256.94
2022-10-17T21:22:39.713Z,103258.34
2022-10-17T21:25:10.677Z,103259.53
2022-10-17T21:27:41.488Z,103261.88
2022-10-17T21:30:11.591Z,103264.13
2022-10-17T21:32:57.771Z,103257.06
2022-10-17T21:35:28.289Z,103261.09
2022-10-17T21:37:57.902Z,103259.75
2022-10-17T21:40:27.547Z,103258.47
2022-10-17T21:42:57.263Z,103256.59
2022-10-17T21:45:28.306Z,103266.22
2022-10-17T21:48:12.660Z,103254.31
2022-10-17T21:50:43.348Z,103254.75
2022-10-17T21:53:12.998Z,103255.50
2022-10-17T21:55:42.530Z,103262.06
2022-10-17T21:58:12.230Z,103259.91
2022-10-17T22:00:42.172Z,103259.81
2022-10-17T22:03:15.483Z,103265.41
2022-10-17T22:05:46.744Z,103266.81
2022-10-17T22:08:16.372Z,103261.69
2022-10-17T22:10:46.488Z,103262.84
2022-10-17T22:13:16.243Z,103256.50
2022-10-17T22:15:46.166Z,103255.81
2022-10-17T22:18:17.587Z,103268.06
2022-10-17T22:20:47.545Z,103264.94
2022-10-17T22:23:17.209Z,103262.09
2022-10-17T22:25:54.118Z,103250.16
2022-10-17T22:28:24.084Z,103249.91
2022-10-17T22:30:54.249Z,103256.75
2022-10-17T22:33:25.372Z,103248.06
2022-10-17T22:35:55.469Z,103253.06
2022-10-17T22:38:25.076Z,103248.88
2022-10-17T22:40:54.424Z,103251.09
2022-10-17T22:43:24.192Z,103242.94
2022-10-17T22:45:55.216Z,103244.69
2022-10-17T22:48:27.517Z,103241.06
2022-10-17T22:50:58.711Z,103237.31
2022-10-17T22:53:30.221Z,103243.28
2022-10-17T22:56:02.237Z,103240.38
2022-10-17T22:58:34.435Z,103238.13
2022-10-17T23:01:05.741Z,103244.84
2022-10-17T23:22:56.841Z,103218.25
2022-10-17T23:25:27.184Z,103229.22
2022-10-17T23:27:56.551Z,103231.19
2022-10-17T23:30:26.814Z,103229.22
2022-10-17T23:32:56.530Z,103233.44
2022-10-17T23:35:26.028Z,103230.72
2022-10-17T23:37:57.317Z,103223.03
2022-10-17T23:40:27.438Z,103219.66
2022-10-17T23:42:57.251Z,103228.16
2022-10-17T23:45:27.447Z,103223.50
2022-10-17T23:47:57.149Z,103218.47
2022-10-17T23:50:26.719Z,103224.53
2022-10-17T23:52:57.759Z,103226.38
2022-10-17T23:55:27.748Z,103218.31
2022-10-17T23:58:16.014Z,103217.34
